sensor_id;sensor_type;location;lat;lon;timestamp;pressure;altitude;pressure_sealevel;temperature;humidity
58690;BME280;44470;53.206;-6.106;2022-12-18T00:02:12;101371.81;;;21.82;45.89
58690;BME280;44470;53.206;-6.106;2022-12-18T00:04:37;101376.28;;;21.82;45.85
58690;BME280;44470;53.206;-6.106;2022-12-18T00:07:03;101370.75;;;21.92;45.61
58690;BME280;44470;53.206;-6.106;2022-12-18T00:09:29;101370.16;;;21.75;45.72
58690;BME280;44470;53.206;-6.106;2022-12-18T00:11:54;101363.91;;;21.74;46.11
58690;BME280;44470;53.206;-6.106;2022-12-18T00:14:35;101359.34;;;21.81;45.62
58690;BME280;44470;53.206;-6.106;2022-12-18T00:17:02;101346.91;;;21.77;45.95
58690;BME280;44470;53.206;-6.106;2022-12-18T00:19:27;101334.50;;;21.70;45.98
58690;BME280;44470;53.206;-6.106;2022-12-18T00:21:53;101347.84;;;21.73;45.96
58690;BME280;44470;53.206;-6.106;2022-12-18T00:24:18;101352.47;;;21.65;45.98
58690;BME280;44470;53.206;-6.106;2022-12-18T00:26:44;101357.72;;;21.71;46.19
58690;BME280;44470;53.206;-6.106;2022-12-18T00:29:12;101357.81;;;21.65;46.20
58690;BME280;44470;53.206;-6.106;2022-12-18T00:31:39;101347.06;;;21.68;46.69
58690;BME280;44470;53.206;-6.106;2022-12-18T00:34:05;101352.16;;;21.83;46.38
58690;BME280;44470;53.206;-6.106;2022-12-18T00:36:33;101354.09;;;21.75;46.35
58690;BME280;44470;53.206;-6.106;2022-12-18T00:39:01;101365.44;;;21.88;46.13
58690;BME280;44470;53.206;-6.106;2022-12-18T00:41:27;101355.69;;;21.85;46.01
58690;BME280;44470;53.206;-6.106;2022-12-18T00:44:14;101342.59;;;21.68;46.62
58690;BME280;44470;53.206;-6.106;2022-12-18T00:46:42;101338.16;;;21.66;46.51
58690;BME280;44470;53.206;-6.106;2022-12-18T00:49:08;101331.84;;;21.70;46.23
58690;BME280;44470;53.206;-6.106;2022-12-18T00:51:33;101335.44;;;21.69;46.47
58690;BME280;44470;53.206;-6.106;2022-12-18T00:53:59;101340.69;;;21.75;46.16
58690;BME280;44470;53.206;-6.106;2022-12-18T00:56:24;101336.38;;;21.66;46.48
58690;BME280;44470;53.206;-6.106;2022-12-18T00:58:51;101326.53;;;21.67;46.68
58690;BME280;44470;53.206;-6.106;2022-12-18T01:01:17;101322.94;;;21.68;46.49
58690;BME280;44470;53.206;-6.106;2022-12-18T01:03:43;101326.41;;;21.74;46.09
58690;BME280;44470;53.206;-6.106;2022-12-18T01:06:11;101320.25;;;21.68;46.40
58690;BME280;44470;53.206;-6.106;2022-12-18T01:08:37;101323.75;;;21.73;46.09
58690;BME280;44470;53.206;-6.106;2022-12-18T01:11:16;101329.94;;;21.76;46.07
58690;BME280;44470;53.206;-6.106;2022-12-18T01:13:43;101314.59;;;21.86;46.38
58690;BME280;44470;53.206;-6.106;2022-12-18T01:16:14;101313.00;;;21.74;46.14
58690;BME280;44470;53.206;-6.106;2022-12-18T01:18:41;101306.94;;;21.65;46.14
58690;BME280;44470;53.206;-6.106;2022-12-18T01:21:08;101303.41;;;21.59;46.17
58690;BME280;44470;53.206;-6.106;2022-12-18T01:23:36;101312.22;;;21.68;46.54
58690;BME280;44470;53.206;-6.106;2022-12-18T01:26:10;101314.84;;;21.71;46.54
58690;BME280;44470;53.206;-6.106;2022-12-18T01:28:36;101307.78;;;21.67;46.35
58690;BME280;44470;53.206;-6.106;2022-12-18T01:31:33;101307.59;;;21.77;46.21
58690;BME280;44470;53.206;-6.106;2022-12-18T01:34:02;101296.03;;;21.75;46.33
58690;BME280;44470;53.206;-6.106;2022-12-18T01:36:33;101297.78;;;21.78;46.14
58690;BME280;44470;53.206;-6.106;2022-12-18T01:39:02;101290.53;;;21.83;46.08
58690;BME280;44470;53.206;-6.106;2022-12-18T01:41:30;101283.56;;;21.73;46.26
58690;BME280;44470;53.206;-6.106;2022-12-18T01:49:53;101264.66;;;21.81;46.61
58690;BME280;44470;53.206;-6.106;2022-12-18T01:52:19;101254.06;;;21.76;46.40
58690;BME280;44470;53.206;-6.106;2022-12-18T01:54:47;101243.34;;;21.74;46.30
58690;BME280;44470;53.206;-6.106;2022-12-18T01:57:13;101227.28;;;21.74;46.17
58690;BME280;44470;53.206;-6.106;2022-12-18T01:59:39;101217.34;;;21.81;46.46
58690;BME280;44470;53.206;-6.106;2022-12-18T02:02:07;101209.50;;;21.70;46.36
58690;BME280;44470;53.206;-6.106;2022-12-18T02:04:32;101203.22;;;21.71;46.29
58690;BME280;44470;53.206;-6.106;2022-12-18T02:07:10;101186.31;;;21.68;46.42
58690;BME280;44470;53.206;-6.106;2022-12-18T02:09:48;101193.50;;;21.67;46.50
58690;BME280;44470;53.206;-6.106;2022-12-18T02:12:24;101205.97;;;21.67;46.36
58690;BME280;44470;53.206;-6.106;2022-12-18T02:15:07;101210.34;;;21.72;46.54
58690;BME280;44470;53.206;-6.106;2022-12-18T02:18:24;101217.41;;;21.76;46.34
58690;BME280;44470;53.206;-6.106;2022-12-18T02:21:12;101194.97;;;21.82;46.09
58690;BME280;44470;53.206;-6.106;2022-12-18T02:23:56;101200.41;;;21.79;46.38
58690;BME280;44470;53.206;-6.106;2022-12-18T02:26:34;101179.28;;;21.60;46.28
58690;BME280;44470;53.206;-6.106;2022-12-18T02:29:10;101194.19;;;21.77;46.40
58690;BME280;44470;53.206;-6.106;2022-12-18T02:31:51;101188.72;;;21.83;46.12
58690;BME280;44470;53.206;-6.106;2022-12-18T02:34:19;101180.81;;;21.77;46.47
58690;BME280;44470;53.206;-6.106;2022-12-18T02:36:48;101165.81;;;21.67;46.49
58690;BME280;44470;53.206;-6.106;2022-12-18T02:39:15;101155.84;;;21.75;46.24
58690;BME280;44470;53.206;-6.106;2022-12-18T02:41:54;101171.91;;;21.75;46.39
58690;BME280;44470;53.206;-6.106;2022-12-18T02:44:22;101168.34;;;21.73;46.50
58690;BME280;44470;53.206;-6.106;2022-12-18T02:46:53;101165.75;;;21.70;46.18
58690;BME280;44470;53.206;-6.106;2022-12-18T02:57:24;101150.34;;;21.81;46.20
58690;BME280;44470;53.206;-6.106;2022-12-18T02:59:56;101147.91;;;21.69;46.53
58690;BME280;44470;53.206;-6.106;2022-12-18T03:02:29;101151.41;;;21.72;46.60
58690;BME280;44470;53.206;-6.106;2022-12-18T03:05:15;101141.56;;;21.73;46.42
58690;BME280;44470;53.206;-6.106;2022-12-18T03:08:00;101149.38;;;21.84;46.37
58690;BME280;44470;53.206;-6.106;2022-12-18T03:14:20;101125.63;;;21.67;46.37
58690;BME280;44470;53.206;-6.106;2022-12-18T03:16:52;101125.47;;;21.74;46.39
58690;BME280;44470;53.206;-6.106;2022-12-18T03:19:22;101102.41;;;21.67;46.61
58690;BME280;44470;53.206;-6.106;2022-12-18T03:21:53;101096.94;;;21.72;46.69
58690;BME280;44470;53.206;-6.106;2022-12-18T03:24:24;101084.38;;;21.74;46.62
58690;BME280;44470;53.206;-6.106;2022-12-18T03:26:54;101070.09;;;21.75;46.31
58690;BME280;44470;53.206;-6.106;2022-12-18T03:29:46;101064.47;;;21.87;46.38
58690;BME280;44470;53.206;-6.106;2022-12-18T03:32:26;101071.91;;;21.73;46.37
58690;BME280;44470;53.206;-6.106;2022-12-18T03:34:57;101062.00;;;21.78;46.36
58690;BME280;44470;53.206;-6.106;2022-12-18T03:37:32;101046.47;;;21.92;46.23
58690;BME280;44470;53.206;-6.106;2022-12-18T03:39:57;101046.72;;;21.82;46.20
58690;BME280;44470;53.206;-6.106;2022-12-18T03:42:46;101055.44;;;21.91;46.32
58690;BME280;44470;53.206;-6.106;2022-12-18T03:48:02;101057.59;;;21.74;46.57
58690;BME280;44470;53.206;-6.106;2022-12-18T03:53:33;101051.13;;;21.84;46.49
58690;BME280;44470;53.206;-6.106;2022-12-18T03:56:03;101038.84;;;21.74;46.37
58690;BME280;44470;53.206;-6.106;2022-12-18T03:58:35;101035.09;;;21.83;46.55
58690;BME280;44470;53.206;-6.106;2022-12-18T04:01:15;101050.31;;;21.81;46.23
58690;BME280;44470;53.206;-6.106;2022-12-18T04:03:43;101052.06;;;21.83;46.46
58690;BME280;44470;53.206;-6.106;2022-12-18T04:06:09;101034.28;;;21.79;46.31
58690;BME280;44470;53.206;-6.106;2022-12-18T04:08:36;101023.75;;;21.70;46.66
58690;BME280;44470;53.206;-6.106;2022-12-18T04:11:05;101032.38;;;21.84;46.57
58690;BME280;44470;53.206;-6.106;2022-12-18T04:13:35;101033.31;;;21.82;46.25
58690;BME280;44470;53.206;-6.106;2022-12-18T04:16:02;101035.00;;;21.86;46.35
58690;BME280;44470;53.206;-6.106;2022-12-18T04:18:28;101011.16;;;21.75;46.54
58690;BME280;44470;53.206;-6.106;2022-12-18T04:20:54;101009.50;;;21.69;46.35
58690;BME280;44470;53.206;-6.106;2022-12-18T04:23:20;101004.25;;;21.65;46.46
58690;BME280;44470;53.206;-6.106;2022-12-18T04:25:46;101003.16;;;21.73;46.58
58690;BME280;44470;53.206;-6.106;2022-12-18T04:28:17;100983.66;;;21.67;46.63
58690;BME280;44470;53.206;-6.106;2022-12-18T04:30:42;100964.72;;;21.76;46.52
58690;BME280;44470;53.206;-6.106;2022-12-18T04:33:10;100974.31;;;21.85;46.47
58690;BME280;44470;53.206;-6.106;2022-12-18T04:35:36;100964.63;;;21.79;46.32
58690;BME280;44470;53.206;-6.106;2022-12-18T04:38:02;100963.66;;;21.82;46.50
58690;BME280;44470;53.206;-6.106;2022-12-18T04:40:27;100957.13;;;21.94;46.19
58690;BME280;44470;53.206;-6.106;2022-12-18T04:42:53;100950.13;;;21.88;46.19
58690;BME280;44470;53.206;-6.106;2022-12-18T04:45:19;100946.72;;;21.81;46.24
58690;BME280;44470;53.206;-6.106;2022-12-18T04:47:44;100930.66;;;21.81;46.40
58690;BME280;44470;53.206;-6.106;2022-12-18T04:50:10;100936.03;;;21.80;46.31
58690;BME280;44470;53.206;-6.106;2022-12-18T04:52:36;100941.38;;;21.80;46.36
58690;BME280;44470;53.206;-6.106;2022-12-18T04:55:01;100945.06;;;21.75;46.44
58690;BME280;44470;53.206;-6.106;2022-12-18T04:57:27;100933.66;;;21.67;46.13
58690;BME280;44470;53.206;-6.106;2022-12-18T04:59:52;100926.50;;;21.68;46.40
58690;BME280;44470;53.206;-6.106;2022-12-18T05:02:19;100941.38;;;21.81;46.39
58690;BME280;44470;53.206;-6.106;2022-12-18T05:04:44;100943.28;;;21.76;46.38
58690;BME280;44470;53.206;-6.106;2022-12-18T05:07:10;100930.84;;;21.72;46.38
58690;BME280;44470;53.206;-6.106;2022-12-18T05:09:35;100928.03;;;21.78;46.13
58690;BME280;44470;53.206;-6.106;2022-12-18T05:12:01;100945.88;;;21.79;46.28
58690;BME280;44470;53.206;-6.106;2022-12-18T05:14:26;100929.69;;;21.84;46.00
58690;BME280;44470;53.206;-6.106;2022-12-18T05:16:54;100925.38;;;21.78;46.08
58690;BME280;44470;53.206;-6.106;2022-12-18T05:19:19;100933.59;;;21.69;46.27
58690;BME280;44470;53.206;-6.106;2022-12-18T05:21:45;100910.50;;;21.65;46.38
58690;BME280;44470;53.206;-6.106;2022-12-18T05:24:10;100910.22;;;21.77;46.51
58690;BME280;44470;53.206;-6.106;2022-12-18T05:26:36;100915.59;;;21.75;46.24
58690;BME280;44470;53.206;-6.106;2022-12-18T05:29:02;100900.47;;;21.73;46.61
58690;BME280;44470;53.206;-6.106;2022-12-18T05:31:27;100894.97;;;21.79;46.52
58690;BME280;44470;53.206;-6.106;2022-12-18T05:33:53;100885.38;;;21.70;46.47
58690;BME280;44470;53.206;-6.106;2022-12-18T05:39:31;100852.97;;;21.80;46.28
58690;BME280;44470;53.206;-6.106;2022-12-18T05:41:57;100858.41;;;21.76;46.44
58690;BME280;44470;53.206;-6.106;2022-12-18T05:44:23;100860.84;;;21.86;46.43
58690;BME280;44470;53.206;-6.106;2022-12-18T05:46:48;100862.75;;;21.82;46.34
58690;BME280;44470;53.206;-6.106;2022-12-18T05:49:14;100859.00;;;21.89;46.01
58690;BME280;44470;53.206;-6.106;2022-12-18T05:51:39;100857.56;;;21.76;46.22
58690;BME280;44470;53.206;-6.106;2022-12-18T05:54:05;100824.63;;;21.71;46.48
58690;BME280;44470;53.206;-6.106;2022-12-18T05:56:30;100830.63;;;21.81;46.38
58690;BME280;44470;53.206;-6.106;2022-12-18T05:58:56;100830.69;;;21.79;46.46
58690;BME280;44470;53.206;-6.106;2022-12-18T06:01:26;100824.16;;;21.89;46.34
58690;BME280;44470;53.206;-6.106;2022-12-18T06:03:52;100819.25;;;21.71;46.17
58690;BME280;44470;53.206;-6.106;2022-12-18T06:06:27;100805.72;;;21.77;46.20
58690;BME280;44470;53.206;-6.106;2022-12-18T06:08:53;100806.41;;;21.85;46.07
58690;BME280;44470;53.206;-6.106;2022-12-18T06:11:23;100816.44;;;21.77;46.69
58690;BME280;44470;53.206;-6.106;2022-12-18T06:13:50;100824.31;;;21.83;46.03
58690;BME280;44470;53.206;-6.106;2022-12-18T06:16:16;100807.50;;;21.78;46.61
58690;BME280;44470;53.206;-6.106;2022-12-18T06:18:42;100806.50;;;21.81;46.13
58690;BME280;44470;53.206;-6.106;2022-12-18T06:21:07;100811.00;;;21.80;46.38
58690;BME280;44470;53.206;-6.106;2022-12-18T06:23:33;100800.22;;;21.83;46.32
58690;BME280;44470;53.206;-6.106;2022-12-18T06:26:03;100785.97;;;21.81;46.63
58690;BME280;44470;53.206;-6.106;2022-12-18T06:28:29;100804.59;;;21.86;46.53
58690;BME280;44470;53.206;-6.106;2022-12-18T06:30:55;100788.50;;;21.86;46.34
58690;BME280;44470;53.206;-6.106;2022-12-18T06:33:27;100786.72;;;21.86;46.17
58690;BME280;44470;53.206;-6.106;2022-12-18T06:35:53;100779.63;;;21.84;46.14
58690;BME280;44470;53.206;-6.106;2022-12-18T06:38:19;100793.19;;;21.79;46.19
58690;BME280;44470;53.206;-6.106;2022-12-18T06:40:44;100780.63;;;21.81;46.27
58690;BME280;44470;53.206;-6.106;2022-12-18T06:43:10;100770.06;;;21.75;46.44
58690;BME280;44470;53.206;-6.106;2022-12-18T06:45:35;100770.00;;;21.76;46.26
58690;BME280;44470;53.206;-6.106;2022-12-18T06:48:01;100771.75;;;21.79;46.25
58690;BME280;44470;53.206;-6.106;2022-12-18T06:50:26;100772.59;;;21.80;46.06
58690;BME280;44470;53.206;-6.106;2022-12-18T06:52:52;100761.88;;;21.80;46.21
58690;BME280;44470;53.206;-6.106;2022-12-18T06:55:17;100757.50;;;21.77;46.33
58690;BME280;44470;53.206;-6.106;2022-12-18T06:57:43;100757.56;;;21.74;46.36
58690;BME280;44470;53.206;-6.106;2022-12-18T07:00:09;100759.34;;;21.75;46.49
58690;BME280;44470;53.206;-6.106;2022-12-18T07:02:35;100744.88;;;21.82;46.45
58690;BME280;44470;53.206;-6.106;2022-12-18T07:05:01;100743.13;;;21.81;46.53
58690;BME280;44470;53.206;-6.106;2022-12-18T07:07:26;100739.53;;;21.81;46.40
58690;BME280;44470;53.206;-6.106;2022-12-18T07:09:52;100729.84;;;21.76;46.16
58690;BME280;44470;53.206;-6.106;2022-12-18T07:12:17;100702.94;;;21.81;46.24
58690;BME280;44470;53.206;-6.106;2022-12-18T07:14:43;100700.25;;;21.81;45.98
58690;BME280;44470;53.206;-6.106;2022-12-18T07:17:08;100721.59;;;21.84;46.35
58690;BME280;44470;53.206;-6.106;2022-12-18T07:19:34;100707.44;;;21.79;46.19
58690;BME280;44470;53.206;-6.106;2022-12-18T07:22:00;100720.69;;;21.84;46.37
58690;BME280;44470;53.206;-6.106;2022-12-18T07:24:25;100705.69;;;21.78;46.48
58690;BME280;44470;53.206;-6.106;2022-12-18T07:26:51;100700.91;;;21.89;46.21
58690;BME280;44470;53.206;-6.106;2022-12-18T07:29:18;100699.22;;;21.85;46.09
58690;BME280;44470;53.206;-6.106;2022-12-18T07:31:44;100693.03;;;21.83;46.08
58690;BME280;44470;53.206;-6.106;2022-12-18T07:34:11;100685.25;;;21.74;46.36
58690;BME280;44470;53.206;-6.106;2022-12-18T07:36:37;100670.88;;;21.78;46.23
58690;BME280;44470;53.206;-6.106;2022-12-18T07:39:02;100678.66;;;21.86;46.25
58690;BME280;44470;53.206;-6.106;2022-12-18T07:41:31;100671.78;;;21.77;46.16
58690;BME280;44470;53.206;-6.106;2022-12-18T07:44:09;100681.44;;;21.83;46.13
58690;BME280;44470;53.206;-6.106;2022-12-18T07:46:35;100673.94;;;21.96;45.84
58690;BME280;44470;53.206;-6.106;2022-12-18T07:49:00;100664.31;;;21.88;45.74
58690;BME280;44470;53.206;-6.106;2022-12-18T07:51:26;100640.50;;;21.77;46.36
58690;BME280;44470;53.206;-6.106;2022-12-18T07:53:51;100619.59;;;21.90;45.89
58690;BME280;44470;53.206;-6.106;2022-12-18T07:56:17;100623.22;;;21.88;45.90
58690;BME280;44470;53.206;-6.106;2022-12-18T07:58:42;100606.13;;;21.92;45.99
58690;BME280;44470;53.206;-6.106;2022-12-18T08:01:11;100597.47;;;21.84;46.16
58690;BME280;44470;53.206;-6.106;2022-12-18T08:03:38;100595.66;;;21.84;46.14
58690;BME280;44470;53.206;-6.106;2022-12-18T08:06:06;100574.53;;;21.75;45.70
58690;BME280;44470;53.206;-6.106;2022-12-18T08:08:33;100584.84;;;21.87;45.86
58690;BME280;44470;53.206;-6.106;2022-12-18T08:10:58;100577.78;;;21.85;45.68
58690;BME280;44470;53.206;-6.106;2022-12-18T08:13:24;100568.06;;;21.82;45.82
58690;BME280;44470;53.206;-6.106;2022-12-18T08:18:26;100530.38;;;21.87;45.82
58690;BME280;44470;53.206;-6.106;2022-12-18T08:20:52;100527.88;;;21.82;46.03
58690;BME280;44470;53.206;-6.106;2022-12-18T08:23:17;100532.03;;;21.91;45.57
58690;BME280;44470;53.206;-6.106;2022-12-18T08:25:43;100534.16;;;21.81;45.87
58690;BME280;44470;53.206;-6.106;2022-12-18T08:28:09;100525.91;;;21.87;45.96
58690;BME280;44470;53.206;-6.106;2022-12-18T08:30:35;100506.63;;;21.76;46.21
58690;BME280;44470;53.206;-6.106;2022-12-18T08:33:01;100502.00;;;21.81;45.95
58690;BME280;44470;53.206;-6.106;2022-12-18T08:35:26;100490.50;;;21.77;46.09
58690;BME280;44470;53.206;-6.106;2022-12-18T08:37:52;100485.09;;;21.79;46.14
58690;BME280;44470;53.206;-6.106;2022-12-18T08:40:17;100486.88;;;21.78;46.00
58690;BME280;44470;53.206;-6.106;2022-12-18T08:42:43;100485.09;;;21.79;46.16
58690;BME280;44470;53.206;-6.106;2022-12-18T08:45:27;100478.03;;;21.76;45.86
58690;BME280;44470;53.206;-6.106;2022-12-18T08:47:53;100475.13;;;21.84;46.08
58690;BME280;44470;53.206;-6.106;2022-12-18T08:50:19;100487.69;;;21.82;45.92
58690;BME280;44470;53.206;-6.106;2022-12-18T08:52:45;100484.81;;;21.88;46.01
58690;BME280;44470;53.206;-6.106;2022-12-18T08:55:10;100498.00;;;21.95;45.82
58690;BME280;44470;53.206;-6.106;2022-12-18T08:57:36;100495.31;;;21.95;45.66
58690;BME280;44470;53.206;-6.106;2022-12-18T09:00:03;100499.94;;;21.89;46.01
58690;BME280;44470;53.206;-6.106;2022-12-18T09:02:29;100488.66;;;21.80;45.96
58690;BME280;44470;53.206;-6.106;2022-12-18T09:04:54;100521.47;;;21.86;46.16
58690;BME280;44470;53.206;-6.106;2022-12-18T09:07:20;100509.00;;;21.85;46.06
58690;BME280;44470;53.206;-6.106;2022-12-18T09:09:46;100512.81;;;21.78;46.08
58690;BME280;44470;53.206;-6.106;2022-12-18T09:12:11;100514.66;;;21.76;46.13
58690;BME280;44470;53.206;-6.106;2022-12-18T09:14:37;100504.03;;;21.73;46.02
58690;BME280;44470;53.206;-6.106;2022-12-18T09:17:02;100505.78;;;21.74;46.00
58690;BME280;44470;53.206;-6.106;2022-12-18T09:19:28;100511.06;;;21.77;46.05
58690;BME280;44470;53.206;-6.106;2022-12-18T09:21:53;100495.81;;;21.79;46.26
58690;BME280;44470;53.206;-6.106;2022-12-18T09:24:19;100505.59;;;21.80;46.03
58690;BME280;44470;53.206;-6.106;2022-12-18T09:26:48;100490.28;;;21.84;46.09
58690;BME280;44470;53.206;-6.106;2022-12-18T09:29:15;100505.59;;;21.80;46.34
58690;BME280;44470;53.206;-6.106;2022-12-18T09:31:40;100500.25;;;21.80;46.05
58690;BME280;44470;53.206;-6.106;2022-12-18T09:34:06;100486.03;;;21.78;46.26
58690;BME280;44470;53.206;-6.106;2022-12-18T09:36:32;100491.28;;;21.81;45.99
58690;BME280;44470;53.206;-6.106;2022-12-18T09:38:57;100490.34;;;21.82;46.25
58690;BME280;44470;53.206;-6.106;2022-12-18T09:42:00;100481.50;;;21.80;46.10
58690;BME280;44470;53.206;-6.106;2022-12-18T09:44:39;100473.81;;;21.68;45.94
58690;BME280;44470;53.206;-6.106;2022-12-18T09:47:07;100478.72;;;21.83;46.39
58690;BME280;44470;53.206;-6.106;2022-12-18T09:49:40;100459.13;;;21.81;46.10
58690;BME280;44470;53.206;-6.106;2022-12-18T09:55:10;100447.53;;;21.81;46.11
58690;BME280;44470;53.206;-6.106;2022-12-18T09:57:40;100427.72;;;21.86;45.93
58690;BME280;44470;53.206;-6.106;2022-12-18T10:00:15;100418.78;;;21.86;45.91
58690;BME280;44470;53.206;-6.106;2022-12-18T10:02:42;100409.16;;;21.80;46.37
58690;BME280;44470;53.206;-6.106;2022-12-18T10:05:17;100395.91;;;21.75;46.14
58690;BME280;44470;53.206;-6.106;2022-12-18T10:07:53;100401.88;;;21.84;46.21
58690;BME280;44470;53.206;-6.106;2022-12-18T10:10:30;100387.84;;;21.77;46.42
58690;BME280;44470;53.206;-6.106;2022-12-18T10:16:15;100385.56;;;21.91;46.18
58690;BME280;44470;53.206;-6.106;2022-12-18T10:19:01;100365.41;;;21.80;46.13
58690;BME280;44470;53.206;-6.106;2022-12-18T10:26:40;100348.06;;;21.91;46.18
58690;BME280;44470;53.206;-6.106;2022-12-18T10:32:53;100331.31;;;21.85;46.39
58690;BME280;44470;53.206;-6.106;2022-12-18T10:35:25;100303.06;;;21.76;46.14
58690;BME280;44470;53.206;-6.106;2022-12-18T10:38:07;100302.88;;;21.81;46.41
58690;BME280;44470;53.206;-6.106;2022-12-18T10:45:58;100268.63;;;21.90;46.33
58690;BME280;44470;53.206;-6.106;2022-12-18T10:48:25;100253.69;;;21.83;46.19
58690;BME280;44470;53.206;-6.106;2022-12-18T10:50:51;100255.00;;;21.97;46.31
58690;BME280;44470;53.206;-6.106;2022-12-18T10:53:26;100259.69;;;21.90;46.08
58690;BME280;44470;53.206;-6.106;2022-12-18T10:55:53;100237.72;;;21.80;46.31
58690;BME280;44470;53.206;-6.106;2022-12-18T11:01:14;100224.34;;;21.80;46.67
58690;BME280;44470;53.206;-6.106;2022-12-18T11:06:15;100196.44;;;21.86;46.37
58690;BME280;44470;53.206;-6.106;2022-12-18T11:08:43;100186.41;;;21.91;46.34
58690;BME280;44470;53.206;-6.106;2022-12-18T11:11:20;100176.72;;;21.88;46.63
58690;BME280;44470;53.206;-6.106;2022-12-18T11:16:23;100164.69;;;21.75;46.55
58690;BME280;44470;53.206;-6.106;2022-12-18T11:18:49;100159.00;;;21.84;46.49
58690;BME280;44470;53.206;-6.106;2022-12-18T11:21:15;100149.44;;;21.77;46.72
58690;BME280;44470;53.206;-6.106;2022-12-18T11:23:52;100161.69;;;21.84;46.68
58690;BME280;44470;53.206;-6.106;2022-12-18T11:26:19;100132.97;;;21.88;46.70
58690;BME280;44470;53.206;-6.106;2022-12-18T11:28:49;100136.63;;;21.85;46.73
58690;BME280;44470;53.206;-6.106;2022-12-18T11:36:37;100118.88;;;21.83;46.73
58690;BME280;44470;53.206;-6.106;2022-12-18T11:44:49;100094.47;;;21.90;46.55
58690;BME280;44470;53.206;-6.106;2022-12-18T11:47:31;100094.53;;;21.89;46.57
58690;BME280;44470;53.206;-6.106;2022-12-18T11:50:03;100098.09;;;21.89;46.51
58690;BME280;44470;53.206;-6.106;2022-12-18T11:52:39;100084.00;;;21.84;46.53
58690;BME280;44470;53.206;-6.106;2022-12-18T11:55:41;100085.38;;;21.95;46.57
58690;BME280;44470;53.206;-6.106;2022-12-18T12:03:54;100065.50;;;22.00;46.48
58690;BME280;44470;53.206;-6.106;2022-12-18T12:09:03;100040.66;;;21.97;46.56
58690;BME280;44470;53.206;-6.106;2022-12-18T12:15:34;100003.94;;;21.99;46.58
58690;BME280;44470;53.206;-6.106;2022-12-18T12:39:53;99961.00;;;22.00;46.79
58690;BME280;44470;53.206;-6.106;2022-12-18T12:42:34;99947.81;;;21.96;46.85
58690;BME280;44470;53.206;-6.106;2022-12-18T12:45:34;99943.94;;;22.03;46.80
58690;BME280;44470;53.206;-6.106;2022-12-18T12:48:04;99945.84;;;21.99;46.91
58690;BME280;44470;53.206;-6.106;2022-12-18T12:50:32;99948.66;;;21.96;46.92
58690;BME280;44470;53.206;-6.106;2022-12-18T12:53:01;99932.91;;;22.11;46.65
58690;BME280;44470;53.206;-6.106;2022-12-18T12:55:31;99923.19;;;21.86;47.12
58690;BME280;44470;53.206;-6.106;2022-12-18T13:01:08;99914.66;;;21.98;46.76
58690;BME280;44470;53.206;-6.106;2022-12-18T13:04:01;99917.53;;;21.94;46.58
58690;BME280;44470;53.206;-6.106;2022-12-18T13:06:47;99923.75;;;21.94;46.96
58690;BME280;44470;53.206;-6.106;2022-12-18T13:09:13;99903.34;;;21.91;46.76
58690;BME280;44470;53.206;-6.106;2022-12-18T13:11:44;99899.63;;;21.94;46.96
58690;BME280;44470;53.206;-6.106;2022-12-18T13:14:40;99900.69;;;21.90;47.11
58690;BME280;44470;53.206;-6.106;2022-12-18T13:19:41;99879.91;;;21.97;46.85
58690;BME280;44470;53.206;-6.106;2022-12-18T13:22:30;99874.66;;;21.94;46.99
58690;BME280;44470;53.206;-6.106;2022-12-18T13:24:57;99874.03;;;21.87;47.19
58690;BME280;44470;53.206;-6.106;2022-12-18T13:39:30;99838.09;;;21.92;47.01
58690;BME280;44470;53.206;-6.106;2022-12-18T13:44:35;99827.13;;;21.99;46.86
58690;BME280;44470;53.206;-6.106;2022-12-18T13:47:05;99823.91;;;22.11;46.48
58690;BME280;44470;53.206;-6.106;2022-12-18T13:49:50;99822.84;;;21.95;47.02
58690;BME280;44470;53.206;-6.106;2022-12-18T13:52:19;99829.78;;;21.99;47.17
58690;BME280;44470;53.206;-6.106;2022-12-18T13:54:50;99809.13;;;22.02;46.68
58690;BME280;44470;53.206;-6.106;2022-12-18T13:57:29;99806.50;;;22.01;46.93
58690;BME280;44470;53.206;-6.106;2022-12-18T13:59:56;99797.50;;;22.02;47.54
58690;BME280;44470;53.206;-6.106;2022-12-18T14:02:28;99786.78;;;22.02;46.75
58690;BME280;44470;53.206;-6.106;2022-12-18T14:04:54;99785.47;;;21.91;47.44
58690;BME280;44470;53.206;-6.106;2022-12-18T14:07:24;99783.63;;;21.92;47.33
58690;BME280;44470;53.206;-6.106;2022-12-18T14:09:58;99785.06;;;22.01;47.02
58690;BME280;44470;53.206;-6.106;2022-12-18T14:18:02;99774.59;;;21.95;46.94
58690;BME280;44470;53.206;-6.106;2022-12-18T14:20:31;99771.00;;;21.96;47.25
58690;BME280;44470;53.206;-6.106;2022-12-18T14:22:58;99761.13;;;21.96;46.75
58690;BME280;44470;53.206;-6.106;2022-12-18T14:25:29;99763.63;;;22.01;46.90
58690;BME280;44470;53.206;-6.106;2022-12-18T14:28:04;99751.31;;;21.97;46.77
58690;BME280;44470;53.206;-6.106;2022-12-18T14:30:39;99755.44;;;22.04;47.17
58690;BME280;44470;53.206;-6.106;2022-12-18T14:33:09;99745.00;;;21.98;47.07
58690;BME280;44470;53.206;-6.106;2022-12-18T14:35:37;99705.22;;;21.88;47.01
58690;BME280;44470;53.206;-6.106;2022-12-18T14:38:24;99719.00;;;22.00;46.91
58690;BME280;44470;53.206;-6.106;2022-12-18T14:41:14;99719.44;;;21.90;46.70
58690;BME280;44470;53.206;-6.106;2022-12-18T14:43:42;99710.22;;;21.96;46.96
58690;BME280;44470;53.206;-6.106;2022-12-18T14:49:00;99693.97;;;22.01;46.72
58690;BME280;44470;53.206;-6.106;2022-12-18T14:51:29;99694.09;;;21.98;46.46
58690;BME280;44470;53.206;-6.106;2022-12-18T14:54:00;99684.38;;;21.95;46.81
58690;BME280;44470;53.206;-6.106;2022-12-18T14:56:31;99679.75;;;21.99;46.79
58690;BME280;44470;53.206;-6.106;2022-12-18T14:58:59;99676.16;;;22.00;46.67
58690;BME280;44470;53.206;-6.106;2022-12-18T15:01:34;99675.50;;;21.95;46.83
58690;BME280;44470;53.206;-6.106;2022-12-18T15:04:03;99671.88;;;21.96;46.92
58690;BME280;44470;53.206;-6.106;2022-12-18T15:06:36;99671.72;;;21.99;46.59